Hana — 2BCV4 — position and weather

sailwx.info

Track history (hours):
 
Tides and Currents Weather Stations Pressure Air Temp Water Temp Dewpoint Dewpoint Depression Visibility Wind Speed Wind Dir Waves Ship Positions

Hana

Last reported at 2014-Sep-30 12:06 UTC. Time now 2014-Oct-02 08:40 UTC.
Position N 43°43' E 007°30'.

Length 43 m; draft 2.9 m.

Type: Pleasure craft. MMSI: 235065022.

Date/timePositionNaut miles runAvg speedWind from/ knotsBaromVisibWave heightAir tempDewpointWater temp
2014-Sep-30 12:06N 43°43' E 007°30'5 8.7
2014-Sep-30 11:33N 43°41' E 007°23'5 1.2
2014-Sep-30 07:33N 43°42' E 007°17'1 1.5
2014-Sep-30 06:33N 43°41' E 007°15'4 4.0
2014-Sep-30 05:33N 43°37' E 007°14'7 7.0
2014-Sep-30 04:33N 43°33' E 007°06'2 1.4
2014-Sep-30 03:24N 43°34' E 007°04'0 0.0
2014-Sep-30 02:30N 43°34' E 007°04'0 0.0
2014-Sep-30 01:30N 43°34' E 007°04'0 0.0
2014-Sep-30 00:30N 43°34' E 007°04'0 0.0
2014-Sep-29 23:12N 43°34' E 007°04'0 0.0
2014-Sep-29 22:30N 43°34' E 007°04'0 0.0
2014-Sep-29 21:30N 43°34' E 007°04'0 0.0
2014-Sep-29 20:24N 43°34' E 007°04'0 0.0
2014-Sep-29 19:24N 43°34' E 007°04'0 0.0
2014-Sep-29 18:30N 43°34' E 007°04'0 0.0
2014-Sep-29 17:30N 43°34' E 007°04'2 1.7
2014-Sep-29 16:33N 43°32' E 007°05'2 1.6
2014-Sep-29 15:18N 43°31' E 007°02'0 0.0
2014-Sep-29 14:12N 43°31' E 007°02'0 0.0
2014-Sep-29 09:30N 43°31' E 007°02'0 0.0
2014-Sep-29 08:06N 43°31' E 007°02'1 1.2
2014-Sep-29 07:32N 43°31' E 007°02'1 0.4
2014-Sep-29 05:33N 43°32' E 007°01'1010.4
2014-Sep-29 04:33N 43°23' E 006°53'1010.4
2014-Sep-29 03:33N 43°18' E 006°41'3 2.7
2014-Sep-29 02:32N 43°16' E 006°37'0 0.0
2014-Sep-29 01:33N 43°16' E 006°37'0 0.0
2014-Sep-29 00:33N 43°16' E 006°37'0 0.0
2014-Sep-28 23:33N 43°16' E 006°37'0 0.0
2014-Sep-28 22:32N 43°16' E 006°37'0 0.0
2014-Sep-28 21:33N 43°16' E 006°37'0 0.0
2014-Sep-28 20:33N 43°16' E 006°37'0 0.0
2014-Sep-28 19:33N 43°16' E 006°37'0 0.0
2014-Sep-28 18:33N 43°16' E 006°37'0 0.0
2014-Sep-28 17:33N 43°16' E 006°37'0 0.0
2014-Sep-28 16:33N 43°16' E 006°37'3 0.6
2014-Sep-28 11:32N 43°14' E 006°40'3 2.5
2014-Sep-28 10:29N 43°16' E 006°44'910.0
2014-Sep-28 09:33N 43°22' E 006°53'1010.2
2014-Sep-28 08:33N 43°29' E 007°04'1010.4
2014-Sep-28 07:33N 43°36' E 007°14'1010.2
2014-Sep-28 06:33N 43°43' E 007°25'2 1.6
2014-Sep-28 05:06N 43°44' E 007°27'0 0.0
2014-Sep-28 04:24N 43°44' E 007°27'0 0.0
2014-Sep-28 01:24N 43°44' E 007°27'0 0.0
2014-Sep-28 00:12N 43°44' E 007°27'0 0.0
2014-Sep-27 15:24N 43°44' E 007°27'0 0.0
2014-Sep-27 14:24N 43°44' E 007°27'0 0.0
2014-Sep-27 05:24N 43°44' E 007°27'0 0.0
2014-Sep-27 03:12N 43°44' E 007°27'0 0.0
2014-Sep-27 02:24N 43°44' E 007°27'0 0.0
2014-Sep-26 14:24N 43°44' E 007°27'0 0.0
2014-Sep-26 02:18N 43°44' E 007°27'0 0.0
2014-Sep-26 00:12N 43°44' E 007°27'0 0.0
2014-Sep-25 23:30N 43°44' E 007°27'0 0.0
2014-Sep-25 20:06N 43°44' E 007°27'0 0.0
2014-Sep-25 19:30N 43°44' E 007°27'0 0.0
2014-Sep-25 07:06N 43°44' E 007°27'0 0.0
2014-Sep-25 03:30N 43°44' E 007°27'0 0.0
2014-Sep-24 22:30N 43°44' E 007°27'0 0.0
2014-Sep-24 12:18N 43°44' E 007°27'0 0.0
2014-Sep-24 01:18N 43°44' E 007°27'0 0.0
2014-Sep-24 00:18N 43°44' E 007°27'0 0.0
2014-Sep-22 22:09N 43°44' E 007°26'0 0.0
2014-Sep-22 20:21N 43°44' E 007°26'0 0.0
2014-Sep-22 16:33N 43°45' E 007°26'0 0.1
2014-Sep-22 15:33N 43°45' E 007°26'0 0.0
2014-Sep-21 12:13N 43°44' E 007°26'4 6.7
2014-Sep-21 11:33N 43°41' E 007°22'4 3.6
2014-Sep-21 10:33N 43°42' E 007°17'0 0.0
2014-Sep-21 09:33N 43°42' E 007°17'0 0.0
2014-Sep-21 08:33N 43°42' E 007°17'0 0.0
2014-Sep-21 07:33N 43°42' E 007°17'3 2.4
2014-Sep-21 06:30N 43°42' E 007°21'0 0.0
2014-Sep-21 05:06N 43°42' E 007°20'0 0.0
2014-Sep-21 04:06N 43°42' E 007°21'0 0.0
2014-Sep-21 03:30N 43°42' E 007°20'0 0.0
2014-Sep-21 02:30N 43°42' E 007°20'0 0.0
2014-Sep-21 01:30N 43°42' E 007°20'0 0.0
2014-Sep-21 00:18N 43°42' E 007°21'5 6.2
2014-Sep-20 23:28N 43°42' E 007°28'4311.0
2014-Sep-20 19:33N 43°50' E 008°26'1010.4
2014-Sep-20 18:34N 43°52' E 008°40'1010.3
2014-Sep-20 17:33N 43°54' E 008°54'1010.3
2014-Sep-20 16:34N 43°56' E 009°08'1110.5
2014-Sep-20 15:34N 43°59' E 009°22'1010.4
2014-Sep-20 14:33N 44°01' E 009°37'1010.0
2014-Sep-20 13:33N 44°03' E 009°50'0 0.1
2014-Sep-20 12:33N 44°03' E 009°50'  
Track history (hours):
 
Tides and Currents Weather Stations Pressure Air Temp Water Temp Dewpoint Dewpoint Depression Visibility Wind Speed Wind Dir Waves Ship Positions

Hana

Last reported at 2014-Sep-30 12:06 UTC. Time now 2014-Oct-02 08:40 UTC.
Position N 43°43' E 007°30'.

Length 43 m; draft 2.9 m.

Type: Pleasure craft. MMSI: 235065022.

Date/timePositionNaut miles runAvg speedWind from/ knotsBaromVisibWave heightAir tempDewpointWater temp
2014-Sep-30 12:06N 43°43' E 007°30'5 8.7
2014-Sep-30 11:33N 43°41' E 007°23'5 1.2
2014-Sep-30 07:33N 43°42' E 007°17'1 1.5
2014-Sep-30 06:33N 43°41' E 007°15'4 4.0
2014-Sep-30 05:33N 43°37' E 007°14'7 7.0
2014-Sep-30 04:33N 43°33' E 007°06'2 1.4
2014-Sep-30 03:24N 43°34' E 007°04'0 0.0
2014-Sep-30 02:30N 43°34' E 007°04'0 0.0
2014-Sep-30 01:30N 43°34' E 007°04'0 0.0
2014-Sep-30 00:30N 43°34' E 007°04'0 0.0
2014-Sep-29 23:12N 43°34' E 007°04'0 0.0
2014-Sep-29 22:30N 43°34' E 007°04'0 0.0
2014-Sep-29 21:30N 43°34' E 007°04'0 0.0
2014-Sep-29 20:24N 43°34' E 007°04'0 0.0
2014-Sep-29 19:24N 43°34' E 007°04'0 0.0
2014-Sep-29 18:30N 43°34' E 007°04'0 0.0
2014-Sep-29 17:30N 43°34' E 007°04'2 1.7
2014-Sep-29 16:33N 43°32' E 007°05'2 1.6
2014-Sep-29 15:18N 43°31' E 007°02'0 0.0
2014-Sep-29 14:12N 43°31' E 007°02'0 0.0
2014-Sep-29 09:30N 43°31' E 007°02'0 0.0
2014-Sep-29 08:06N 43°31' E 007°02'1 1.2
2014-Sep-29 07:32N 43°31' E 007°02'1 0.4
2014-Sep-29 05:33N 43°32' E 007°01'1010.4
2014-Sep-29 04:33N 43°23' E 006°53'1010.4
2014-Sep-29 03:33N 43°18' E 006°41'3 2.7
2014-Sep-29 02:32N 43°16' E 006°37'0 0.0
2014-Sep-29 01:33N 43°16' E 006°37'0 0.0
2014-Sep-29 00:33N 43°16' E 006°37'0 0.0
2014-Sep-28 23:33N 43°16' E 006°37'0 0.0
2014-Sep-28 22:32N 43°16' E 006°37'0 0.0
2014-Sep-28 21:33N 43°16' E 006°37'0 0.0
2014-Sep-28 20:33N 43°16' E 006°37'0 0.0
2014-Sep-28 19:33N 43°16' E 006°37'0 0.0
2014-Sep-28 18:33N 43°16' E 006°37'0 0.0
2014-Sep-28 17:33N 43°16' E 006°37'0 0.0
2014-Sep-28 16:33N 43°16' E 006°37'3 0.6
2014-Sep-28 11:32N 43°14' E 006°40'3 2.5
2014-Sep-28 10:29N 43°16' E 006°44'910.0
2014-Sep-28 09:33N 43°22' E 006°53'1010.2
2014-Sep-28 08:33N 43°29' E 007°04'1010.4
2014-Sep-28 07:33N 43°36' E 007°14'1010.2
2014-Sep-28 06:33N 43°43' E 007°25'2 1.6
2014-Sep-28 05:06N 43°44' E 007°27'0 0.0
2014-Sep-28 04:24N 43°44' E 007°27'0 0.0
2014-Sep-28 01:24N 43°44' E 007°27'0 0.0
2014-Sep-28 00:12N 43°44' E 007°27'0 0.0
2014-Sep-27 15:24N 43°44' E 007°27'0 0.0
2014-Sep-27 14:24N 43°44' E 007°27'0 0.0
2014-Sep-27 05:24N 43°44' E 007°27'0 0.0
2014-Sep-27 03:12N 43°44' E 007°27'0 0.0
2014-Sep-27 02:24N 43°44' E 007°27'0 0.0
2014-Sep-26 14:24N 43°44' E 007°27'0 0.0
2014-Sep-26 02:18N 43°44' E 007°27'0 0.0
2014-Sep-26 00:12N 43°44' E 007°27'0 0.0
2014-Sep-25 23:30N 43°44' E 007°27'0 0.0
2014-Sep-25 20:06N 43°44' E 007°27'0 0.0
2014-Sep-25 19:30N 43°44' E 007°27'0 0.0
2014-Sep-25 07:06N 43°44' E 007°27'0 0.0
2014-Sep-25 03:30N 43°44' E 007°27'0 0.0
2014-Sep-24 22:30N 43°44' E 007°27'0 0.0
2014-Sep-24 12:18N 43°44' E 007°27'0 0.0
2014-Sep-24 01:18N 43°44' E 007°27'0 0.0
2014-Sep-24 00:18N 43°44' E 007°27'0 0.0
2014-Sep-22 22:09N 43°44' E 007°26'0 0.0
2014-Sep-22 20:21N 43°44' E 007°26'0 0.0
2014-Sep-22 16:33N 43°45' E 007°26'0 0.1
2014-Sep-22 15:33N 43°45' E 007°26'0 0.0
2014-Sep-21 12:13N 43°44' E 007°26'4 6.7
2014-Sep-21 11:33N 43°41' E 007°22'4 3.6
2014-Sep-21 10:33N 43°42' E 007°17'0 0.0
2014-Sep-21 09:33N 43°42' E 007°17'0 0.0
2014-Sep-21 08:33N 43°42' E 007°17'0 0.0
2014-Sep-21 07:33N 43°42' E 007°17'3 2.4
2014-Sep-21 06:30N 43°42' E 007°21'0 0.0
2014-Sep-21 05:06N 43°42' E 007°20'0 0.0
2014-Sep-21 04:06N 43°42' E 007°21'0 0.0
2014-Sep-21 03:30N 43°42' E 007°20'0 0.0
2014-Sep-21 02:30N 43°42' E 007°20'0 0.0
2014-Sep-21 01:30N 43°42' E 007°20'0 0.0
2014-Sep-21 00:18N 43°42' E 007°21'5 6.2
2014-Sep-20 23:28N 43°42' E 007°28'4311.0
2014-Sep-20 19:33N 43°50' E 008°26'1010.4
2014-Sep-20 18:34N 43°52' E 008°40'1010.3
2014-Sep-20 17:33N 43°54' E 008°54'1010.3
2014-Sep-20 16:34N 43°56' E 009°08'1110.5
2014-Sep-20 15:34N 43°59' E 009°22'1010.4
2014-Sep-20 14:33N 44°01' E 009°37'1010.0
2014-Sep-20 13:33N 44°03' E 009°50'0 0.1
2014-Sep-20 12:33N 44°03' E 009°50'  

Dump ship's entire track history